Main page
METAR-TAF:

METAR-TAF

Airports :

Abadan-Ayatollah Jami International Airport

Abadan, Iran

latitude: 30-22N, longitude: 048-15E, elevation: 3 m

Current weather observation

The report was made 18 minutes ago, at 14:00 UTC
Wind 14 kt from the West/Northwest
Temperature 46°C
Humidity 11%
Pressure 995 hPa
Visibility 10 km or more
no clouds below 1500 m and no cumulonimbus

METAR: OIAA 181400Z 29014KT CAVOK 46/09 Q0995

Time: 18:48 (14:18 UTC)

Forecast

The report was made 2 hours and 58 minutes ago, at 11:20 UTC
Forecast valid from 18 at 12 UTC to 19 at 18 UTC
Wind 6 kt from the West
Visibility: 7000 m
Temporary
from 19 at 08 UTC to 19 at 15 UTC
Wind 16 kt from the West

TAF: OIAA 181120Z 1812/1918 28003MPS 7000 NSC TEMPO 1908/1915 28008MPS

Weather observations and forecasts of more than 4000 airports (METAR and TAF reports).

The available stations are represented by yellow and red dots on the map.

Hover mouse over dot to see the name of the station.

Then click to see weather observations and forecasts.

To change the map : click on the green buttons with a black cross to zoom in, on the green button with a dash to zoom out, or on the green arrows for adjacent maps.


METAR-TAF: